LiveATC.Net - Listen to live air traffic control over the Internet! Contact LiveATC.net for advertising information


ICAO: LFBZ  IATA: BIQ   Airport: Anglet Airport
City: Biarritz
Country: France   Continent: Europe
LFBZ METAR Weather: LFBZ 241730Z 06004KT 020V080 9999 VCTS SCT020CB BKN053 BKN083 15/12 Q1012 NOSIG
LFBZ Flight Activity (FlightAware)
LFBZ Gnd/Tower/App
Feed Status: UP   Listeners: 9
Listen right in your browser - requires Flash (in browser, requires Flash)
Click here to listen with your own player (launches your MP3 player)
LFBZ Gnd/Tower/App Audio Archives
FacilityFrequency
Biarritz Approach125.600
Biarritz Ground121.950
Biarritz Info119.175
Biarritz Tower118.700

Sponsored by: USA Pictures

NOTICE

Unauthorized use prohibited. See LiveATC.net Terms of Service


Find LiveATC Audio Streams


Airport/ARTCC Code

Frequency
(e.g., 124.400, 128.75)
Site-wide search

Browse LiveATC Feeds
LiveATC Coverage Map
Top 50 LiveATC Feeds
Bad Weather Areas

LiveATC FAQ
Offer a LiveATC Feed
Contact LiveATC.net
Press Inquiries

LiveATC on iPhone
LiveATC on Android

LiveATC Mobile
(Mobile browser)

ATC Audio Archives
Interesting Recordings

LiveATC Forums


Home Page
About LiveATC.net
Make a Donation
LiveATC Bookstore

Terms of Use
Privacy Policy

ATC/Radar Sites
U.S. ARTCC Freqs
Canadian Air Freqs

AIRMETs/SIGMETs

FAA Airport Status
Nat'l Airspace Status
Arrival Demand Charts


Server Software By:
Icecast.org
Liquidsoap

Please make a donation to help us keep growing!